Time;durP1;ratioP1;P1;durP2;ratioP2;P2;SDS_P1;SDS_P2;PMS_P1;PMS_P2;Temp;Humidity;BMP_temperature;BMP_pressure;BME280_temperature;BME280_humidity;BME280_pressure;Samples;Min_cycle;Max_cycle;Signal;HPM_P1;HPM_P2
2022/09/10 00:00:59;;;;;;;6.13;3.87;;;-40.00;99.90;;;;;;5096509;28;20174;-74
2022/09/10 00:03:26;;;;;;;5.17;3.70;;;-40.00;99.90;;;;;;5095980;28;20178;-75
2022/09/10 00:05:53;;;;;;;14.37;3.43;;;-40.00;99.90;;;;;;5096479;28;20167;-74
2022/09/10 00:08:19;;;;;;;6.80;3.40;;;-40.00;99.90;;;;;;5096586;28;20190;-72
2022/09/10 00:10:49;;;;;;;8.00;3.60;;;-40.00;99.90;;;;;;5096223;28;20242;-70
2022/09/10 00:13:18;;;;;;;12.37;4.50;;;-40.00;99.90;;;;;;5096437;28;20208;-74
2022/09/10 00:15:46;;;;;;;9.70;4.20;;;-40.00;99.90;;;;;;5096291;28;20220;-71
2022/09/10 00:18:15;;;;;;;7.73;3.60;;;-40.00;99.90;;;;;;5096440;28;20174;-72
2022/09/10 00:20:48;;;;;;;13.33;3.70;;;-40.00;99.90;;;;;;5096253;28;20227;-72
2022/09/10 00:23:15;;;;;;;14.23;3.67;;;-40.00;99.90;;;;;;5096118;28;20175;-75
2022/09/10 00:25:41;;;;;;;6.47;3.20;;;-40.00;99.90;;;;;;5095776;28;20178;-73
2022/09/10 00:28:08;;;;;;;6.07;3.57;;;-40.00;99.90;;;;;;5096264;28;20174;-70
2022/09/10 00:30:43;;;;;;;6.03;3.50;;;-40.00;99.90;;;;;;5096205;28;20194;-76
2022/09/10 00:33:09;;;;;;;7.77;2.80;;;-40.00;99.90;;;;;;5096341;28;20460;-74
2022/09/10 00:35:36;;;;;;;10.97;3.90;;;-40.00;99.90;;;;;;5096021;28;20174;-72
2022/09/10 00:38:02;;;;;;;8.37;4.30;;;-40.00;99.90;;;;;;5096281;28;20247;-72
2022/09/10 00:40:28;;;;;;;14.40;4.33;;;-40.00;99.90;;;;;;5095692;28;20163;-72
2022/09/10 00:42:54;;;;;;;8.87;3.80;;;-40.00;99.90;;;;;;5096031;28;20190;-72
2022/09/10 00:45:30;;;;;;;6.57;3.87;;;-40.00;99.90;;;;;;5095903;28;20674;-71
2022/09/10 00:48:14;;;;;;;12.40;3.30;;;-39.00;99.90;;;;;;5095917;28;20158;-72
2022/09/10 00:50:43;;;;;;;10.10;3.10;;;-40.00;99.90;;;;;;5095684;28;20220;-75
2022/09/10 00:53:14;;;;;;;5.57;3.23;;;-40.00;99.90;;;;;;5095949;28;20159;-73
2022/09/10 00:55:43;;;;;;;7.87;2.87;;;-40.00;99.90;;;;;;5095612;28;20185;-73
2022/09/10 00:58:12;;;;;;;5.80;3.83;;;-40.00;99.90;;;;;;5095859;28;20254;-71
2022/09/10 01:00:40;;;;;;;12.27;4.97;;;-40.00;99.90;;;;;;5095618;28;20476;-73
2022/09/10 01:03:10;;;;;;;14.50;4.60;;;-40.00;99.90;;;;;;5095729;28;20167;-75
2022/09/10 01:05:37;;;;;;;14.47;4.77;;;-40.00;99.90;;;;;;5095675;28;20205;-75
2022/09/10 01:08:03;;;;;;;8.73;3.90;;;-40.00;99.90;;;;;;5095736;28;20540;-71
2022/09/10 01:10:39;;;;;;;9.03;4.20;;;-40.00;99.90;;;;;;5095414;28;20197;-73
2022/09/10 01:13:34;;;;;;;8.30;4.13;;;-40.00;99.90;;;;;;5095516;28;20166;-71
2022/09/10 01:16:24;;;;;;;7.50;4.17;;;-40.00;99.90;;;;;;5096779;28;20163;-71
2022/09/10 01:19:14;;;;;;;7.53;3.63;;;-40.00;99.90;;;;;;5099778;28;20488;-73
2022/09/10 01:21:53;;;;;;;13.93;5.07;;;-40.00;99.90;;;;;;5099643;28;20167;-79
2022/09/10 01:24:34;;;;;;;7.23;3.93;;;-40.00;99.90;;;;;;5099201;28;20194;-71
2022/09/10 01:27:46;;;;;;;15.37;5.13;;;-40.00;99.90;;;;;;5099553;28;20343;-75
2022/09/10 01:30:37;;;;;;;10.67;4.43;;;-40.00;99.90;;;;;;5057162;28;20187;-73
2022/09/10 01:33:28;;;;;;;8.83;3.70;;;-40.00;99.90;;;;;;5057153;28;20248;-75
2022/09/10 01:36:04;;;;;;;12.10;4.30;;;-40.00;99.90;;;;;;5083421;28;20202;-72
2022/09/10 01:38:43;;;;;;;8.17;3.93;;;-40.00;99.90;;;;;;5099081;28;20220;-73
2022/09/10 01:41:09;;;;;;;5.20;3.43;;;-40.00;99.90;;;;;;5099251;28;20220;-74
2022/09/10 01:43:35;;;;;;;11.90;3.93;;;-40.00;99.90;;;;;;5099297;28;20163;-73
2022/09/10 01:46:42;;;;;;;13.07;5.20;;;-40.00;99.90;;;;;;5099166;28;20167;-73
2022/09/10 01:49:20;;;;;;;6.83;3.93;;;-40.00;99.90;;;;;;5097067;28;20765;-76
2022/09/10 01:52:05;;;;;;;7.00;3.97;;;-40.00;99.90;;;;;;5098812;28;20186;-73
2022/09/10 01:54:55;;;;;;;11.87;4.97;;;-40.00;99.90;;;;;;5099110;28;20596;-76
2022/09/10 01:57:26;;;;;;;14.20;6.00;;;-40.00;99.90;;;;;;5098969;28;20177;-71
2022/09/10 02:00:04;;;;;;;16.17;5.27;;;-40.00;99.90;;;;;;5097959;28;20493;-77
2022/09/10 02:02:36;;;;;;;10.13;4.47;;;-40.00;99.90;;;;;;5098663;28;20217;-74
2022/09/10 02:05:03;;;;;;;9.40;5.60;;;-40.00;99.90;;;;;;5098874;28;20201;-75
2022/09/10 02:07:31;;;;;;;19.00;6.90;;;-40.00;99.90;;;;;;5098558;28;20193;-74
2022/09/10 02:09:59;;;;;;;14.87;5.20;;;-39.80;99.90;;;;;;5098948;28;20300;-77
2022/09/10 02:12:24;;;;;;;8.47;5.47;;;-40.00;99.90;;;;;;5098645;28;20159;-75
2022/09/10 02:14:54;;;;;;;16.60;5.50;;;-40.00;99.90;;;;;;5098752;28;20182;-72
2022/09/10 02:17:22;;;;;;;11.13;5.43;;;-40.00;99.90;;;;;;5098492;28;20642;-73
2022/09/10 02:19:53;;;;;;;9.60;6.60;;;-40.00;99.90;;;;;;5098713;28;20178;-71
2022/09/10 02:22:22;;;;;;;9.33;5.30;;;-40.00;99.90;;;;;;5098177;28;20182;-74
2022/09/10 02:24:48;;;;;;;13.70;4.73;;;-40.00;99.90;;;;;;5098583;28;20596;-72
2022/09/10 02:27:13;;;;;;;12.13;5.23;;;-40.00;99.90;;;;;;5098121;28;20206;-78
2022/09/10 02:29:39;;;;;;;9.00;5.03;;;-40.00;99.90;;;;;;5098265;28;20236;-74
2022/09/10 02:32:07;;;;;;;7.83;5.27;;;-40.00;99.90;;;;;;5098430;28;20167;-75
2022/09/10 02:34:33;;;;;;;17.13;7.80;;;-40.00;99.90;;;;;;5098234;28;20190;-74
2022/09/10 02:37:01;;;;;;;10.07;5.87;;;-40.00;99.90;;;;;;5098049;28;20195;-73
2022/09/10 02:39:27;;;;;;;14.73;6.73;;;-40.00;99.90;;;;;;5098228;28;20212;-71
2022/09/10 02:41:52;;;;;;;12.67;5.93;;;-40.00;99.90;;;;;;5098227;28;20175;-71
2022/09/10 02:44:18;;;;;;;12.03;8.40;;;-40.00;99.90;;;;;;5097969;28;20194;-72
2022/09/10 02:46:44;;;;;;;13.47;6.27;;;-40.00;99.90;;;;;;5098025;28;20159;-70
2022/09/10 02:49:10;;;;;;;11.87;6.93;;;-40.00;99.90;;;;;;5098099;28;20228;-73
2022/09/10 02:51:36;;;;;;;11.13;6.70;;;-40.00;99.90;;;;;;5096717;28;20194;-74
2022/09/10 02:54:03;;;;;;;12.53;7.80;;;-40.00;99.90;;;;;;5098023;28;20497;-73
2022/09/10 02:56:28;;;;;;;9.90;5.90;;;-40.00;99.90;;;;;;5097992;28;20163;-73
2022/09/10 02:58:54;;;;;;;9.07;6.13;;;-40.00;99.90;;;;;;5097581;28;20186;-71
2022/09/10 03:01:21;;;;;;;9.43;6.73;;;-40.00;99.90;;;;;;5097908;28;20175;-76
2022/09/10 03:03:54;;;;;;;13.63;6.90;;;-40.00;99.90;;;;;;5097629;28;20194;-78
2022/09/10 03:06:22;;;;;;;10.30;6.53;;;-40.00;99.90;;;;;;5097369;28;20462;-75
2022/09/10 03:08:48;;;;;;;7.87;6.93;;;-40.00;99.90;;;;;;5097597;28;20252;-74
2022/09/10 03:11:17;;;;;;;11.03;7.43;;;-40.00;99.90;;;;;;5097617;28;20158;-78
2022/09/10 03:13:44;;;;;;;12.27;7.00;;;-40.00;99.90;;;;;;5097410;28;20596;-72
2022/09/10 03:16:13;;;;;;;8.53;7.50;;;-40.00;99.90;;;;;;5097445;28;20228;-75
2022/09/10 03:18:40;;;;;;;9.97;8.93;;;-40.00;99.90;;;;;;5097451;28;20178;-73
2022/09/10 03:21:13;;;;;;;16.30;9.57;;;-40.00;99.90;;;;;;5097167;28;20173;-75
2022/09/10 03:23:40;;;;;;;14.63;8.40;;;-40.00;99.90;;;;;;5097187;28;20175;-75
2022/09/10 03:26:09;;;;;;;10.93;8.47;;;-40.00;99.90;;;;;;5097391;28;20337;-71
2022/09/10 03:28:36;;;;;;;14.00;8.50;;;-40.00;99.90;;;;;;5097070;28;20253;-76
2022/09/10 03:31:05;;;;;;;17.27;8.87;;;-40.00;99.90;;;;;;5097397;28;20173;-77
2022/09/10 03:33:31;;;;;;;13.47;10.10;;;-40.00;99.90;;;;;;5096835;28;20193;-76
2022/09/10 03:35:57;;;;;;;14.37;10.30;;;-40.00;99.90;;;;;;5097279;28;20475;-70
2022/09/10 03:38:24;;;;;;;15.30;10.47;;;-39.40;99.90;;;;;;5096514;28;20166;-75
2022/09/10 03:40:51;;;;;;;15.27;10.77;;;-37.70;99.90;;;;;;5097010;28;20175;-73
2022/09/10 03:43:18;;;;;;;12.97;9.47;;;-40.00;99.90;;;;;;5097063;28;20171;-74
2022/09/10 03:45:44;;;;;;;15.67;10.57;;;-40.00;99.90;;;;;;5096881;28;20191;-74
2022/09/10 03:48:10;;;;;;;12.70;11.10;;;-40.00;99.90;;;;;;5096740;28;20233;-78
2022/09/10 03:50:36;;;;;;;13.63;11.40;;;-40.00;99.90;;;;;;5096877;28;20706;-74
2022/09/10 03:53:03;;;;;;;16.13;12.60;;;-40.00;99.90;;;;;;5096917;28;20227;-75
2022/09/10 03:55:29;;;;;;;13.90;10.83;;;-40.00;99.90;;;;;;5096693;28;20177;-76
2022/09/10 03:57:57;;;;;;;17.73;12.03;;;-40.00;99.90;;;;;;5096897;28;20163;-74
2022/09/10 04:00:25;;;;;;;16.40;12.13;;;-40.00;99.90;;;;;;5095408;28;20487;-75
2022/09/10 04:02:51;;;;;;;13.90;12.47;;;-40.00;99.90;;;;;;5096585;28;20190;-74
2022/09/10 04:05:17;;;;;;;17.43;12.60;;;-40.00;99.90;;;;;;5098308;28;20190;-75
2022/09/10 04:07:43;;;;;;;13.83;11.80;;;-40.00;99.90;;;;;;5097646;28;20235;-73
2022/09/10 04:10:09;;;;;;;21.97;13.40;;;-39.10;99.90;;;;;;5098281;28;20590;-72
2022/09/10 04:12:36;;;;;;;18.00;11.60;;;-39.30;99.90;;;;;;5098071;28;20166;-76
2022/09/10 04:15:03;;;;;;;17.73;11.50;;;-39.20;99.90;;;;;;5098307;28;20159;-70
2022/09/10 04:17:28;;;;;;;16.73;13.70;;;-40.00;99.90;;;;;;5097895;28;20170;-75
2022/09/10 04:19:54;;;;;;;18.50;12.40;;;-40.00;99.90;;;;;;5098857;28;20167;-74
2022/09/10 04:22:21;;;;;;;21.07;12.57;;;-40.00;99.90;;;;;;5099137;28;20182;-76
2022/09/10 04:24:47;;;;;;;19.70;15.07;;;-40.00;99.90;;;;;;5096574;28;20494;-75
2022/09/10 04:27:13;;;;;;;17.57;14.50;;;-40.00;99.90;;;;;;5096354;28;20166;-73
2022/09/10 04:29:39;;;;;;;17.13;13.70;;;-40.00;99.90;;;;;;5097247;28;20171;-72
2022/09/10 04:32:06;;;;;;;18.37;13.43;;;-40.00;99.90;;;;;;5096324;28;20193;-73
2022/09/10 04:34:31;;;;;;;14.37;12.87;;;-40.00;99.90;;;;;;5095909;28;20541;-74
2022/09/10 04:36:57;;;;;;;18.70;15.27;;;-40.00;99.90;;;;;;5096702;28;20254;-71
2022/09/10 04:39:23;;;;;;;19.90;16.10;;;-40.00;99.90;;;;;;5096869;28;20174;-70
2022/09/10 04:41:49;;;;;;;16.77;15.30;;;-40.00;99.90;;;;;;5096449;28;20167;-73
2022/09/10 04:44:18;;;;;;;18.13;13.33;;;-40.00;99.90;;;;;;5094788;28;20243;-70
2022/09/10 04:46:46;;;;;;;25.33;17.07;;;-40.00;99.90;;;;;;5094762;28;20193;-75
2022/09/10 04:49:12;;;;;;;19.63;17.63;;;-40.00;99.90;;;;;;5095206;28;20168;-74
2022/09/10 04:51:37;;;;;;;19.00;17.10;;;-40.00;99.90;;;;;;5096097;28;20205;-72
2022/09/10 04:54:03;;;;;;;29.63;18.30;;;-40.00;99.90;;;;;;5096103;28;20222;-76
2022/09/10 04:56:29;;;;;;;18.73;16.73;;;-40.00;99.90;;;;;;5095864;28;20198;-74
2022/09/10 04:58:55;;;;;;;22.93;18.37;;;-40.00;99.90;;;;;;5095918;28;20182;-72
2022/09/10 05:01:22;;;;;;;22.47;17.43;;;-40.00;99.90;;;;;;5095851;28;20241;-69
2022/09/10 05:03:47;;;;;;;23.50;17.73;;;-40.00;99.90;;;;;;5096183;28;20198;-74
2022/09/10 05:06:13;;;;;;;20.30;18.03;;;-40.00;99.90;;;;;;5095906;28;20190;-73
2022/09/10 05:08:39;;;;;;;19.57;16.67;;;-40.00;99.90;;;;;;5095760;28;20594;-73
2022/09/10 05:11:05;;;;;;;18.47;16.47;;;-40.00;99.90;;;;;;5095500;28;20163;-73
2022/09/10 05:13:30;;;;;;;22.10;18.23;;;-40.00;99.90;;;;;;5094642;28;20247;-71
2022/09/10 05:15:58;;;;;;;21.47;19.20;;;-40.00;99.90;;;;;;5095428;28;20466;-68
2022/09/10 05:18:25;;;;;;;24.53;18.13;;;-40.00;99.90;;;;;;5095682;28;20163;-68
2022/09/10 05:20:51;;;;;;;25.57;20.23;;;-40.00;99.90;;;;;;5095498;28;20250;-71
2022/09/10 05:23:17;;;;;;;22.87;18.97;;;-40.00;99.90;;;;;;5095546;28;20190;-69
2022/09/10 05:25:43;;;;;;;21.30;19.10;;;-40.00;99.90;;;;;;5095633;28;20194;-68
2022/09/10 05:28:10;;;;;;;22.50;20.10;;;-40.00;99.90;;;;;;5095599;28;20170;-69
2022/09/10 05:30:35;;;;;;;25.80;19.80;;;-40.00;99.90;;;;;;5095275;28;20635;-71
2022/09/10 05:33:02;;;;;;;26.00;23.07;;;-40.00;99.90;;;;;;5095554;28;20175;-72
2022/09/10 05:35:29;;;;;;;31.97;21.20;;;-40.00;99.90;;;;;;5095551;28;20202;-72
2022/09/10 05:37:59;;;;;;;24.77;21.47;;;-40.00;99.90;;;;;;5095482;28;20174;-73
2022/09/10 05:40:25;;;;;;;26.90;21.90;;;-40.00;99.90;;;;;;5095591;28;20453;-72
2022/09/10 05:42:52;;;;;;;30.37;23.67;;;-40.00;99.90;;;;;;5095516;28;20179;-73
2022/09/10 05:45:19;;;;;;;29.97;24.77;;;-40.00;99.90;;;;;;5095190;28;20198;-72
2022/09/10 05:47:45;;;;;;;26.93;22.20;;;-40.00;99.90;;;;;;5095343;28;20174;-71
2022/09/10 05:50:11;;;;;;;21.43;19.27;;;-40.00;99.90;;;;;;5095589;28;20162;-68
2022/09/10 05:52:36;;;;;;;26.00;21.67;;;-40.00;99.90;;;;;;5095038;28;20194;-72
2022/09/10 05:55:03;;;;;;;23.30;19.80;;;-40.00;99.90;;;;;;5095492;28;20275;-71
2022/09/10 05:57:30;;;;;;;24.37;21.73;;;-40.00;99.90;;;;;;5095284;28;20171;-72
2022/09/10 05:59:55;;;;;;;24.87;20.20;;;-40.00;99.90;;;;;;5094923;28;20188;-70
2022/09/10 06:02:21;;;;;;;28.23;22.97;;;-40.00;99.90;;;;;;5096524;28;20167;-69
2022/09/10 06:04:47;;;;;;;31.57;23.73;;;-40.00;99.90;;;;;;5098877;28;20195;-73
2022/09/10 06:07:13;;;;;;;32.47;25.87;;;-40.00;99.90;;;;;;5098940;28;20163;-70
2022/09/10 06:09:38;;;;;;;29.93;24.20;;;-40.00;99.90;;;;;;5098789;28;20186;-69
2022/09/10 06:12:07;;;;;;;26.60;23.77;;;-40.00;99.90;;;;;;5098601;28;20166;-70
2022/09/10 06:14:33;;;;;;;28.43;24.13;;;-40.00;99.90;;;;;;5097372;28;20220;-72
2022/09/10 06:16:59;;;;;;;30.10;24.50;;;-40.00;99.90;;;;;;5098780;28;20538;-69
2022/09/10 06:19:25;;;;;;;27.30;22.70;;;-40.00;99.90;;;;;;5098709;28;20171;-69
2022/09/10 06:21:51;;;;;;;26.63;23.70;;;-40.00;99.90;;;;;;5098712;28;20202;-70
2022/09/10 06:24:18;;;;;;;31.83;24.37;;;-40.00;99.90;;;;;;5098392;28;20484;-69
2022/09/10 06:26:48;;;;;;;27.07;23.67;;;-40.00;99.90;;;;;;5098528;28;20167;-68
2022/09/10 06:29:14;;;;;;;27.43;23.80;;;-40.00;99.90;;;;;;5098024;28;20175;-68
2022/09/10 06:31:41;;;;;;;29.53;23.90;;;-40.00;99.90;;;;;;5098402;28;20182;-72
2022/09/10 06:34:07;;;;;;;23.67;21.13;;;-40.00;99.90;;;;;;5098245;28;20186;-70
2022/09/10 06:36:33;;;;;;;23.53;21.03;;;-40.00;99.90;;;;;;5098321;28;20159;-72
2022/09/10 06:39:00;;;;;;;25.77;23.03;;;-40.00;99.90;;;;;;5098313;28;20166;-74
2022/09/10 06:41:29;;;;;;;25.30;22.67;;;-40.00;99.90;;;;;;5098338;28;20163;-72
2022/09/10 06:43:58;;;;;;;29.40;22.93;;;-40.00;99.90;;;;;;5096733;28;20332;-75
2022/09/10 06:46:24;;;;;;;26.80;23.83;;;-40.00;99.90;;;;;;5097970;28;20159;-71
2022/09/10 06:48:49;;;;;;;29.33;23.57;;;-40.00;99.90;;;;;;5097873;28;20468;-72
2022/09/10 06:51:16;;;;;;;26.60;23.80;;;-40.00;99.90;;;;;;5097872;28;20232;-71
2022/09/10 06:53:42;;;;;;;29.13;23.60;;;-40.00;99.90;;;;;;5097973;28;20178;-73
2022/09/10 06:56:12;;;;;;;25.00;22.40;;;-40.00;99.90;;;;;;5098056;28;20194;-74
2022/09/10 06:58:38;;;;;;;27.27;22.50;;;-40.00;99.90;;;;;;5097266;28;20159;-72
2022/09/10 07:01:13;;;;;;;23.97;21.30;;;-40.00;99.90;;;;;;5097861;28;20198;-71
2022/09/10 07:03:39;;;;;;;23.80;21.33;;;-40.00;99.90;;;;;;5097531;28;20167;-73
2022/09/10 07:06:08;;;;;;;27.33;24.27;;;-40.00;99.90;;;;;;5097887;28;20171;-68
2022/09/10 07:08:34;;;;;;;24.40;21.87;;;-40.00;99.90;;;;;;5097575;28;20162;-71
2022/09/10 07:11:03;;;;;;;26.40;23.47;;;-40.00;99.90;;;;;;5097508;28;20201;-71
2022/09/10 07:13:30;;;;;;;22.63;20.53;;;-40.00;99.90;;;;;;5096479;28;20167;-70
2022/09/10 07:15:56;;;;;;;22.73;20.40;;;-40.00;99.90;;;;;;5097574;28;20167;-69
2022/09/10 07:18:24;;;;;;;25.27;19.50;;;-40.00;99.90;;;;;;5097550;28;20167;-74
2022/09/10 07:20:51;;;;;;;23.33;19.70;;;-40.00;99.90;;;;;;5097594;28;20249;-72
2022/09/10 07:23:19;;;;;;;19.60;17.67;;;-40.00;99.90;;;;;;5097356;28;20171;-71
2022/09/10 07:25:46;;;;;;;19.87;17.73;;;-40.00;99.90;;;;;;5096688;28;20190;-73
2022/09/10 07:28:14;;;;;;;20.50;18.67;;;-40.00;99.90;;;;;;5097376;28;20195;-70
2022/09/10 07:30:42;;;;;;;22.83;18.90;;;-40.00;99.90;;;;;;5097375;28;20175;-75
2022/09/10 07:33:07;;;;;;;20.47;18.33;;;-40.00;99.90;;;;;;5097180;28;20178;-72
2022/09/10 07:35:37;;;;;;;24.10;18.90;;;-40.00;99.90;;;;;;5097168;28;20171;-74
2022/09/10 07:38:04;;;;;;;19.83;17.83;;;-40.00;99.90;;;;;;5097131;28;20167;-73
2022/09/10 07:40:31;;;;;;;25.07;20.03;;;-40.00;99.90;;;;;;5095600;28;20171;-74
2022/09/10 07:42:58;;;;;;;18.87;16.80;;;-40.00;99.90;;;;;;5096933;28;20159;-72
2022/09/10 07:45:24;;;;;;;18.20;16.40;;;-40.00;99.90;;;;;;5096891;28;20221;-71
2022/09/10 07:47:50;;;;;;;19.10;16.83;;;-40.00;99.90;;;;;;5096844;28;20257;-71
2022/09/10 07:50:17;;;;;;;20.03;17.10;;;-40.00;99.90;;;;;;5095739;28;20174;-74
2022/09/10 07:52:43;;;;;;;19.57;17.53;;;-40.00;99.90;;;;;;5096705;28;20210;-71
2022/09/10 07:55:09;;;;;;;18.93;16.93;;;-40.00;99.90;;;;;;5096537;28;20582;-70
2022/09/10 07:57:36;;;;;;;17.97;16.27;;;-40.00;99.90;;;;;;5096605;28;20249;-73
2022/09/10 08:00:05;;;;;;;20.53;17.47;;;-40.00;99.90;;;;;;5096517;28;20187;-72
2022/09/10 08:02:30;;;;;;;22.90;16.87;;;-40.00;99.90;;;;;;5096627;28;20166;-70
2022/09/10 08:04:56;;;;;;;20.97;18.20;;;-40.00;99.90;;;;;;5096505;28;20202;-70
2022/09/10 08:07:22;;;;;;;17.67;15.63;;;-40.00;99.90;;;;;;5095837;28;20217;-72
2022/09/10 08:09:48;;;;;;;19.83;16.57;;;-40.00;99.90;;;;;;5095161;28;20481;-69
2022/09/10 08:12:16;;;;;;;18.97;17.17;;;-40.00;99.90;;;;;;5096349;28;20163;-70
2022/09/10 08:14:41;;;;;;;20.83;14.63;;;-40.00;99.90;;;;;;5096306;28;20178;-68
2022/09/10 08:17:07;;;;;;;25.10;19.33;;;-40.00;99.90;;;;;;5096509;28;20249;-70
2022/09/10 08:19:33;;;;;;;23.00;18.03;;;-40.00;99.90;;;;;;5096343;28;20170;-71
2022/09/10 08:21:59;;;;;;;21.67;19.47;;;-40.00;99.90;;;;;;5096269;28;20224;-70
2022/09/10 08:24:24;;;;;;;24.20;20.50;;;-40.00;99.90;;;;;;5095620;28;20207;-68
2022/09/10 08:26:51;;;;;;;23.67;19.97;;;-40.00;99.90;;;;;;5096250;28;20170;-71
2022/09/10 08:29:18;;;;;;;20.57;18.73;;;-40.00;99.90;;;;;;5096229;28;20205;-69
2022/09/10 08:31:43;;;;;;;20.57;18.73;;;-40.00;99.90;;;;;;5096029;28;20167;-74
2022/09/10 08:34:11;;;;;;;22.37;20.30;;;-40.00;99.90;;;;;;5096136;28;20175;-74
2022/09/10 08:36:38;;;;;;;22.27;19.93;;;-40.00;99.90;;;;;;5095817;28;20179;-73
2022/09/10 08:39:04;;;;;;;23.47;20.27;;;-40.00;99.90;;;;;;5095765;28;20163;-73
2022/09/10 08:41:57;;;;;;;26.13;20.43;;;-40.00;99.90;;;;;;5095999;28;20170;-70
2022/09/10 08:44:54;;;;;;;28.27;23.30;;;-40.00;99.90;;;;;;5095894;28;20202;-70
2022/09/10 08:47:52;;;;;;;20.67;18.47;;;-40.00;99.90;;;;;;5095759;28;20219;-72
2022/09/10 08:50:28;;;;;;;28.10;23.63;;;-40.00;99.90;;;;;;5095602;28;20181;-73
2022/09/10 08:53:06;;;;;;;26.17;20.80;;;-40.00;99.90;;;;;;5095526;28;20200;-72
2022/09/10 08:55:34;;;;;;;27.80;19.27;;;-40.00;99.90;;;;;;5095892;28;20485;-68
2022/09/10 08:58:49;;;;;;;19.33;15.90;;;-40.00;99.90;;;;;;5095882;28;20255;-71
2022/09/10 09:01:33;;;;;;;17.50;15.53;;;-40.00;99.90;;;;;;5086070;28;20197;-69
2022/09/10 09:04:01;;;;;;;15.70;14.13;;;-40.00;99.90;;;;;;5095560;28;20677;-68
2022/09/10 09:06:41;;;;;;;18.10;15.07;;;-40.00;99.90;;;;;;5095634;28;20171;-70
2022/09/10 09:09:10;;;;;;;13.17;11.70;;;-40.00;99.90;;;;;;5095571;28;20185;-70
2022/09/10 09:12:00;;;;;;;16.03;12.37;;;-40.00;99.90;;;;;;5095614;28;20163;-70
2022/09/10 09:14:46;;;;;;;17.13;13.00;;;-40.00;99.90;;;;;;5095770;28;20548;-70
2022/09/10 09:17:29;;;;;;;13.33;11.97;;;-40.00;99.90;;;;;;5095578;28;20191;-68
2022/09/10 09:20:14;;;;;;;12.50;10.87;;;-40.00;99.90;;;;;;5095623;28;20216;-74
2022/09/10 09:22:45;;;;;;;17.43;12.87;;;-40.00;99.90;;;;;;5095072;28;20190;-70
2022/09/10 09:25:31;;;;;;;12.30;11.00;;;-40.00;99.90;;;;;;5095540;28;20248;-68
2022/09/10 09:27:57;;;;;;;12.90;11.67;;;-40.00;99.90;;;;;;5095411;28;20570;-68
2022/09/10 09:30:48;;;;;;;12.50;11.40;;;-40.00;99.90;;;;;;5095453;28;20169;-70
2022/09/10 09:33:17;;;;;;;16.50;11.90;;;-40.00;99.90;;;;;;5095367;28;20218;-68
2022/09/10 09:36:02;;;;;;;11.87;10.23;;;-40.00;99.90;;;;;;5095494;28;20159;-70
2022/09/10 09:38:36;;;;;;;11.83;9.83;;;-40.00;99.90;;;;;;5098765;28;20248;-70
2022/09/10 09:41:40;;;;;;;10.37;9.37;;;-40.00;99.90;;;;;;5099443;28;20167;-68
2022/09/10 09:44:30;;;;;;;13.40;9.47;;;-40.00;99.90;;;;;;5099284;28;20201;-67
2022/09/10 09:46:56;;;;;;;8.67;7.83;;;-40.00;99.90;;;;;;5099148;28;20163;-70
2022/09/10 09:49:24;;;;;;;15.33;9.93;;;-40.00;99.90;;;;;;5099079;28;20609;-74
2022/09/10 09:51:50;;;;;;;11.90;8.40;;;-40.00;99.90;;;;;;5098593;28;20230;-72
2022/09/10 09:54:26;;;;;;;9.67;8.70;;;-40.00;99.90;;;;;;5099383;28;20170;-73
2022/09/10 09:56:57;;;;;;;14.87;8.73;;;-40.00;99.90;;;;;;5099017;28;20451;-73
2022/09/10 09:59:33;;;;;;;8.80;7.90;;;-40.00;99.90;;;;;;5098966;28;20211;-75
2022/09/10 10:02:16;;;;;;;8.77;7.20;;;-40.00;99.90;;;;;;5098713;28;20601;-73
2022/09/10 10:04:54;;;;;;;7.57;6.23;;;-40.00;99.90;;;;;;5098709;28;20277;-69
2022/09/10 10:07:30;;;;;;;7.97;6.10;;;-40.00;99.90;;;;;;5098845;28;20246;-70
2022/09/10 10:09:59;;;;;;;8.97;6.87;;;-40.00;99.90;;;;;;5098810;28;20181;-69
2022/09/10 10:12:30;;;;;;;15.33;7.33;;;-40.00;99.90;;;;;;5098513;28;20163;-70
2022/09/10 10:14:57;;;;;;;8.93;6.50;;;-40.00;99.90;;;;;;5097646;28;20167;-69
2022/09/10 10:17:38;;;;;;;8.67;5.93;;;-40.00;99.90;;;;;;5097594;28;20163;-68
2022/09/10 10:20:10;;;;;;;9.33;6.57;;;-40.00;99.90;;;;;;5098361;28;20166;-68
2022/09/10 10:22:41;;;;;;;8.13;5.77;;;-40.00;99.90;;;;;;5098443;28;20175;-72
2022/09/10 10:25:37;;;;;;;7.53;4.97;;;-40.00;99.90;;;;;;5098468;28;20368;-73
2022/09/10 10:28:21;;;;;;;7.47;5.37;;;-40.00;99.90;;;;;;5093795;28;20174;-70
2022/09/10 10:30:58;;;;;;;12.27;7.07;;;-40.00;99.90;;;;;;5098415;28;20167;-71
2022/09/10 10:33:30;;;;;;;6.37;5.20;;;-40.00;99.90;;;;;;5098226;28;20158;-73
2022/09/10 10:36:05;;;;;;;8.63;5.47;;;-40.00;99.90;;;;;;5098045;28;20167;-73
2022/09/10 10:38:36;;;;;;;11.77;5.37;;;-40.00;99.90;;;;;;5098081;28;20206;-69
2022/09/10 10:41:15;;;;;;;7.43;5.80;;;-40.00;99.90;;;;;;5098228;28;20198;-76
2022/09/10 10:44:14;;;;;;;4.50;4.03;;;-40.00;99.90;;;;;;5097851;28;20216;-68
2022/09/10 10:46:55;;;;;;;7.73;5.03;;;-40.00;99.90;;;;;;5096931;28;20170;-70
2022/09/10 10:49:52;;;;;;;7.33;3.67;;;-40.00;99.90;;;;;;5097544;28;20250;-68
2022/09/10 10:52:28;;;;;;;4.00;3.30;;;-40.00;99.90;;;;;;5098029;28;20190;-67
2022/09/10 10:55:12;;;;;;;6.90;3.40;;;-40.00;99.90;;;;;;5097755;28;20170;-68
2022/09/10 10:58:00;;;;;;;3.13;2.80;;;-40.00;99.90;;;;;;5097819;28;20163;-73
2022/09/10 11:00:35;;;;;;;6.50;4.07;;;-40.00;99.90;;;;;;5097546;28;20533;-72
2022/09/10 11:03:09;;;;;;;3.73;3.30;;;-40.00;99.90;;;;;;5097552;28;20389;-67
2022/09/10 11:05:42;;;;;;;3.23;2.83;;;-40.00;99.90;;;;;;5097638;28;20280;-70
2022/09/10 11:08:36;;;;;;;4.40;4.00;;;-40.00;99.90;;;;;;5097726;28;20163;-71
2022/09/10 11:11:15;;;;;;;4.20;3.77;;;-40.00;99.90;;;;;;5096471;28;20468;-69
2022/09/10 11:13:55;;;;;;;8.03;4.07;;;-40.00;99.90;;;;;;5097444;28;20166;-68
2022/09/10 11:16:30;;;;;;;5.87;3.83;;;-40.00;99.90;;;;;;5097540;28;20187;-70
2022/09/10 11:19:05;;;;;;;5.23;4.10;;;-40.00;99.90;;;;;;5097115;28;20159;-70
2022/09/10 11:21:41;;;;;;;5.43;3.97;;;-40.00;99.90;;;;;;5097377;28;20557;-70
2022/09/10 11:24:25;;;;;;;6.53;3.77;;;-40.00;99.80;;;;;;5097045;28;20194;-70
2022/09/10 11:27:05;;;;;;;7.73;4.07;;;-40.00;99.90;;;;;;5097253;28;20205;-76
2022/09/10 11:29:47;;;;;;;6.47;3.30;;;-40.00;99.10;;;;;;5097035;28;20532;-69
2022/09/10 11:32:38;;;;;;;4.27;3.73;;;-40.00;99.00;;;;;;5096960;28;20577;-69
2022/09/10 11:35:12;;;;;;;3.13;2.70;;;-40.00;99.60;;;;;;5097177;28;20174;-69
2022/09/10 11:38:02;;;;;;;5.77;3.53;;;-40.00;99.10;;;;;;5096939;28;20173;-67
2022/09/10 11:40:56;;;;;;;5.40;3.57;;;-40.00;98.40;;;;;;5097003;28;20574;-70
2022/09/10 11:43:38;;;;;;;6.97;2.97;;;-40.00;97.70;;;;;;5096898;28;20170;-71
2022/09/10 11:46:12;;;;;;;6.07;2.90;;;-40.00;98.30;;;;;;5096727;28;20206;-70
2022/09/10 11:49:02;;;;;;;6.37;3.10;;;-40.00;98.50;;;;;;5096647;28;20155;-74
2022/09/10 11:51:35;;;;;;;5.43;3.60;;;-40.00;96.90;;;;;;5096690;28;20198;-70
2022/09/10 11:54:05;;;;;;;7.13;3.77;;;-40.00;96.90;;;;;;5096841;28;20202;-71
2022/09/10 11:56:53;;;;;;;3.63;2.70;;;-40.00;96.00;;;;;;5095934;28;20580;-73
2022/09/10 11:59:28;;;;;;;7.30;2.80;;;-40.00;96.70;;;;;;5095941;28;20495;-71
2022/09/10 12:02:18;;;;;;;6.30;3.63;;;-40.00;95.30;;;;;;5096385;28;20248;-67
2022/09/10 12:05:28;;;;;;;11.33;3.33;;;-40.00;97.00;;;;;;5096527;28;20190;-69
2022/09/10 12:08:02;;;;;;;4.23;3.47;;;-40.00;98.30;;;;;;5054282;28;20590;-69
2022/09/10 12:10:42;;;;;;;9.07;4.70;;;-40.00;98.50;;;;;;5054194;28;20163;-72
2022/09/10 12:13:12;;;;;;;4.17;3.60;;;-40.00;97.80;;;;;;5082213;28;20198;-69
2022/09/10 12:15:38;;;;;;;12.07;6.33;;;-40.00;97.70;;;;;;5096111;28;20163;-71
2022/09/10 12:18:11;;;;;;;8.20;5.63;;;-40.00;99.90;;;;;;5096273;28;20166;-72
2022/09/10 12:20:50;;;;;;;9.00;6.20;;;-40.00;99.90;;;;;;5096214;28;20163;-74
2022/09/10 12:23:22;;;;;;;7.13;6.40;;;-40.00;99.90;;;;;;5096269;28;20438;-70
2022/09/10 12:25:57;;;;;;;8.20;6.63;;;-40.00;99.90;;;;;;5096133;28;20190;-71
2022/09/10 12:28:41;;;;;;;6.17;5.23;;;-40.00;99.90;;;;;;5096146;28;20173;-69
2022/09/10 12:31:08;;;;;;;7.80;4.67;;;-40.00;99.90;;;;;;5095773;28;20616;-69
2022/09/10 12:33:45;;;;;;;10.17;6.47;;;-40.00;99.90;;;;;;5096114;28;20170;-69
2022/09/10 12:36:12;;;;;;;7.90;5.67;;;-40.00;99.90;;;;;;5095919;28;20163;-68
2022/09/10 12:39:02;;;;;;;5.30;4.57;;;-40.00;99.90;;;;;;5096099;28;20503;-69
2022/09/10 12:41:28;;;;;;;4.20;3.43;;;-40.00;99.90;;;;;;5095991;28;20162;-67
2022/09/10 12:44:03;;;;;;;2.93;2.60;;;-40.00;99.90;;;;;;5095898;28;20228;-70
2022/09/10 12:46:30;;;;;;;5.57;2.40;;;-40.00;99.90;;;;;;5095545;28;20231;-70
2022/09/10 12:48:57;;;;;;;4.00;2.27;;;-40.00;99.90;;;;;;5095907;28;20171;-69